< < Back
Terminal Aerodrome Forecast


Current Version              Previous Versions:   1  2  3  4  5  6  7  8  9  

Terminal Aerodrome Forecast

444
FTUS44 KBMX 282324
TAFTCL
TAF
KTCL 282324Z 2900/2924 02005KT P6SM BKN250
     FM290600 00000KT P6SM SCT250
      TEMPO 2909/2912 4SM BR
     FM291800 35006KT P6SM SCT250=

Latest METAR

931
SAUS70 KWBC 290100 RRQ
MTRTCL
METAR KTCL 290053Z 00000KT 9SM CLR 27/23 A2998 RMK AO2 SLP150
T02720233


USA.gov is the U.S. government's official web portal to all federal, state and local government web resources and services.